LYTV Airport Information

Runway Information
Runway 14 Length 8208 ft width 148 ft
Elevation 7 ft Threshold 0 ft Heading 139
Runway 32 Length 8208 ft Width 148 ft
Elevation 16 ft Threshold 0 ft Heading 319
Airport Frequencies
Type ARR Name APP Frequency 118 MHZ
Type TWR Name TWR Frequency 118 MHZ
Airport Navaids
Type NDB Name Tivat Frequency 345 KHZ
Airport Weather Information & NOTAM
ADDS - METARS form results

(1959 UTC 20 April 2021)
Data provider http://aviationweather.gov/metar/data/
 
Forecast for: LYTV (TIVAT , ME)
Text: TAF LYTV 201700Z 2018/2118 03005KT 9999 SCT030 TX17/2113Z TN08/2104Z
Forecast period: 1800 UTC 20 April 2021 to 1800 UTC 21 April 2021
Forecast type: FROM: standard forecast or significant change
Winds: from the NNE (30 degrees) at 6 MPH (5 knots; 2.6 m/s)
Visibility: 6 or more miles (10+ km)
Ceiling: at least 12,000 feet AGL
Clouds: scattered clouds at 3000 feet AGL
Weather: no significant weather forecast for this period
Text: PROB30
Forecast period: 1800 UTC 20 April 2021 to 0000 UTC 21 April 2021
Forecast type: TEMPORARY: The following changes expected for less than half the time period
Visibility: missing
Ceiling: at least 12,000 feet AGL
Clouds: few clouds at 2700 feet AGL
scattered clouds at 3000 feet AGL
Weather: TSRA  (rain associated with thunderstorm(s))